Аэропорт: Пашковский. Краснодар

ICAO: URKK

METAR:
2019-09-21 16:00:00
URKK 211600Z 26003MPS 9999 SCT048CB 10/07 Q1020 R23L/290060 TEMPO VRB12G17MPS 2000 TSRA SCT011 BKN020CB RMK QFE761
METAR:
2019-09-21 14:29:00
TAF AMD URKK 211429Z 2115/2215 27007G12MPS 9999 SCT030CB TEMPO 2115/2118 VRB12G17MPS 2000 TSRA SCT011 BKN020CB FM211800 25003G08MPS 3100 BR SCT020 TEMPO 2200/2206 1000 BR SCT004